createdAt,value
2023-05-27T00:01:15.384Z,16.75
2023-05-27T00:03:48.037Z,16.67
2023-05-27T00:06:20.662Z,16.64
2023-05-27T00:08:52.667Z,16.61
2023-05-27T00:11:26.339Z,16.53
2023-05-27T00:13:58.306Z,16.52
2023-05-27T00:16:30.473Z,16.53
2023-05-27T00:19:06.427Z,16.34
2023-05-27T00:21:38.490Z,16.48
2023-05-27T00:24:11.810Z,16.39
2023-05-27T00:26:43.952Z,16.43
2023-05-27T00:29:18.279Z,16.35
2023-05-27T00:31:50.298Z,16.30
2023-05-27T00:34:22.931Z,16.30
2023-05-27T00:36:54.946Z,16.27
2023-05-27T00:39:27.287Z,16.25
2023-05-27T00:41:59.594Z,16.23
2023-05-27T00:44:31.562Z,16.17
2023-05-27T00:47:03.760Z,15.98
2023-05-27T00:49:35.984Z,16.09
2023-05-27T00:52:08.047Z,16.04
2023-05-27T00:54:43.842Z,16.00
2023-05-27T00:57:15.966Z,15.98
2023-05-27T00:59:48.175Z,15.95
2023-05-27T01:02:20.261Z,15.92
2023-05-27T01:04:52.259Z,15.87
2023-05-27T01:07:40.063Z,15.81
2023-05-27T01:10:20.829Z,15.81
2023-05-27T01:13:04.602Z,15.71
2023-05-27T01:15:37.684Z,15.69
2023-05-27T01:18:17.946Z,15.62
2023-05-27T01:20:52.797Z,15.64
2023-05-27T01:23:25.709Z,15.58
2023-05-27T01:25:57.663Z,15.47
2023-05-27T01:28:29.627Z,15.42
2023-05-27T01:31:19.022Z,15.29
2023-05-27T01:34:07.424Z,15.36
2023-05-27T01:36:49.865Z,15.35
2023-05-27T01:39:24.498Z,15.32
2023-05-27T01:41:57.383Z,15.24
2023-05-27T01:44:31.719Z,15.21
2023-05-27T01:47:04.342Z,15.20
2023-05-27T01:49:36.515Z,15.11
2023-05-27T01:52:09.879Z,15.10
2023-05-27T01:54:41.897Z,15.10
2023-05-27T01:57:14.202Z,15.05
2023-05-27T01:59:46.313Z,15.03
2023-05-27T02:02:18.366Z,15.02
2023-05-27T02:04:50.458Z,14.98
2023-05-27T02:07:22.473Z,14.93
2023-05-27T02:09:54.625Z,14.90
2023-05-27T02:12:26.574Z,14.86
2023-05-27T02:14:58.562Z,14.87
2023-05-27T02:17:30.797Z,14.84
2023-05-27T02:20:04.751Z,14.79
2023-05-27T02:22:36.802Z,14.73
2023-05-27T02:25:09.754Z,14.73
2023-05-27T02:27:43.220Z,14.71
2023-05-27T02:30:17.112Z,14.72
2023-05-27T02:32:49.188Z,14.69
2023-05-27T02:35:22.682Z,14.66
2023-05-27T02:37:54.725Z,14.68
2023-05-27T02:40:30.862Z,14.63
2023-05-27T02:43:02.889Z,14.59
2023-05-27T02:45:35.383Z,14.53
2023-05-27T02:48:07.746Z,14.54
2023-05-27T02:50:40.287Z,14.46
2023-05-27T02:53:12.312Z,14.51
2023-05-27T02:55:44.309Z,14.48
2023-05-27T02:58:16.388Z,14.42
2023-05-27T03:00:48.420Z,14.38
2023-05-27T03:03:20.519Z,14.33
2023-05-27T03:05:52.831Z,14.30
2023-05-27T03:08:25.017Z,14.34
2023-05-27T03:10:57.107Z,14.32
2023-05-27T03:13:29.129Z,14.34
2023-05-27T03:16:01.720Z,14.28
2023-05-27T03:18:33.722Z,14.28
2023-05-27T03:21:05.985Z,14.27
2023-05-27T03:23:37.973Z,14.26
2023-05-27T03:26:10.054Z,14.24
2023-05-27T03:28:42.087Z,14.49
2023-05-27T03:31:14.935Z,14.23
2023-05-27T03:33:47.071Z,14.11
2023-05-27T03:36:19.112Z,14.16
2023-05-27T03:38:51.123Z,14.18
2023-05-27T03:41:23.324Z,14.18
2023-05-27T03:43:55.323Z,14.13
2023-05-27T03:46:27.412Z,14.02
2023-05-27T03:48:59.543Z,14.01
2023-05-27T03:51:32.378Z,13.96
2023-05-27T03:54:04.503Z,13.94
2023-05-27T03:56:36.498Z,13.91
2023-05-27T03:59:08.849Z,13.91
2023-05-27T04:01:42.282Z,13.88
2023-05-27T04:04:14.896Z,13.81
2023-05-27T04:06:46.881Z,13.89
2023-05-27T04:09:18.874Z,13.80
2023-05-27T04:11:51.028Z,13.79
2023-05-27T04:14:22.975Z,13.80
2023-05-27T04:16:55.013Z,13.78
2023-05-27T04:19:27.176Z,13.82
2023-05-27T04:21:59.264Z,13.76
2023-05-27T04:24:31.375Z,13.83
2023-05-27T04:27:03.715Z,13.80
2023-05-27T04:29:35.723Z,13.82
2023-05-27T04:32:07.796Z,13.79
2023-05-27T04:34:42.450Z,13.80
2023-05-27T04:37:14.861Z,13.82
2023-05-27T04:39:47.893Z,13.83
2023-05-27T04:42:20.919Z,13.79
2023-05-27T04:44:52.986Z,13.69
2023-05-27T04:47:25.146Z,13.80
2023-05-27T04:49:57.590Z,13.81
2023-05-27T04:52:29.597Z,13.75
2023-05-27T04:55:02.672Z,13.73
2023-05-27T04:57:34.892Z,13.73
2023-05-27T05:00:09.316Z,13.73
2023-05-27T05:02:43.151Z,13.70
2023-05-27T05:05:15.857Z,13.70
2023-05-27T05:07:47.833Z,13.71
2023-05-27T05:10:19.851Z,13.76
2023-05-27T05:12:52.094Z,13.80
2023-05-27T05:15:24.413Z,13.78
2023-05-27T05:17:57.474Z,13.77
2023-05-27T05:20:30.814Z,13.81
2023-05-27T05:23:03.036Z,13.87
2023-05-27T05:25:39.120Z,13.95
2023-05-27T05:28:11.826Z,14.03
2023-05-27T05:30:44.386Z,14.07
2023-05-27T05:33:16.645Z,14.16
2023-05-27T05:35:48.607Z,14.18
2023-05-27T05:38:20.637Z,14.33
2023-05-27T05:40:53.754Z,14.39
2023-05-27T05:43:27.063Z,14.44
2023-05-27T05:46:01.225Z,14.57
2023-05-27T05:48:33.277Z,14.59
2023-05-27T05:51:05.285Z,14.69
2023-05-27T05:53:37.554Z,14.85
2023-05-27T05:56:09.762Z,14.97
2023-05-27T05:58:41.770Z,15.07
2023-05-27T06:01:13.812Z,15.19
2023-05-27T06:03:46.274Z,15.28
2023-05-27T06:06:18.375Z,15.39
2023-05-27T06:08:50.302Z,15.44
2023-05-27T06:11:22.767Z,15.44
2023-05-27T06:13:54.733Z,15.46
2023-05-27T06:16:27.018Z,15.58
2023-05-27T06:18:59.014Z,15.63
2023-05-27T06:21:33.037Z,15.57
2023-05-27T06:24:05.777Z,15.77
2023-05-27T06:26:37.793Z,15.77
2023-05-27T06:29:09.794Z,15.87
2023-05-27T06:31:41.851Z,16.02
2023-05-27T06:34:13.879Z,16.06
2023-05-27T06:36:49.850Z,16.01
2023-05-27T06:39:22.061Z,16.07
2023-05-27T06:41:54.005Z,16.13
2023-05-27T06:44:26.016Z,16.20
2023-05-27T06:46:58.243Z,16.28
2023-05-27T06:49:30.821Z,16.45
2023-05-27T06:52:03.153Z,16.55
2023-05-27T06:54:35.545Z,16.63
2023-05-27T06:57:07.582Z,16.79
2023-05-27T06:59:40.950Z,16.91
2023-05-27T07:02:12.945Z,16.98
2023-05-27T07:04:45.036Z,17.15
2023-05-27T07:07:17.093Z,17.30
2023-05-27T07:09:49.079Z,17.48
2023-05-27T07:12:21.596Z,17.58
2023-05-27T07:14:53.626Z,17.68
2023-05-27T07:17:25.691Z,17.70
2023-05-27T07:19:57.810Z,17.80
2023-05-27T07:22:30.202Z,17.97
2023-05-27T07:25:02.355Z,18.03
2023-05-27T07:27:34.365Z,18.13
2023-05-27T07:30:07.434Z,18.23
2023-05-27T07:32:39.691Z,18.40
2023-05-27T07:35:11.783Z,18.56
2023-05-27T07:37:43.745Z,18.69
2023-05-27T07:40:15.821Z,18.74
2023-05-27T07:42:47.829Z,18.73
2023-05-27T07:45:19.878Z,18.85
2023-05-27T07:47:51.995Z,18.98
2023-05-27T07:50:24.390Z,19.09
2023-05-27T07:52:56.468Z,19.05
2023-05-27T07:55:28.574Z,18.96
2023-05-27T07:58:00.631Z,19.23
2023-05-27T08:00:32.692Z,19.31
2023-05-27T08:03:04.878Z,19.42
2023-05-27T08:05:36.887Z,19.64
2023-05-27T08:08:08.884Z,19.81
2023-05-27T08:10:41.105Z,19.84
2023-05-27T08:13:13.136Z,19.93
2023-05-27T08:15:45.162Z,20.06
2023-05-27T08:18:17.724Z,20.13
2023-05-27T08:20:50.991Z,20.10
2023-05-27T08:23:23.588Z,20.14
2023-05-27T08:25:56.316Z,20.29
2023-05-27T08:28:28.280Z,20.42
2023-05-27T08:31:00.264Z,20.43
2023-05-27T08:33:32.248Z,20.46
2023-05-27T08:36:04.687Z,20.59
2023-05-27T08:38:36.682Z,20.65
2023-05-27T08:41:08.651Z,20.73
2023-05-27T08:43:41.463Z,20.91
2023-05-27T08:46:15.139Z,20.95
2023-05-27T08:48:47.833Z,20.95
2023-05-27T08:51:20.017Z,21.01
2023-05-27T08:53:52.153Z,20.98
2023-05-27T08:56:27.064Z,21.18
2023-05-27T08:58:59.411Z,21.32
2023-05-27T09:01:32.904Z,21.42
2023-05-27T09:04:05.213Z,21.41
2023-05-27T09:06:37.316Z,21.58
2023-05-27T09:09:10.802Z,21.78
2023-05-27T09:11:43.767Z,21.80
2023-05-27T09:14:24.812Z,22.11
2023-05-27T09:16:57.825Z,22.23
2023-05-27T09:19:31.973Z,22.29
2023-05-27T09:22:04.282Z,22.38
2023-05-27T09:24:36.257Z,22.45
2023-05-27T09:27:10.680Z,22.57
2023-05-27T09:29:42.751Z,22.69
2023-05-27T09:32:24.786Z,22.82
2023-05-27T09:35:05.585Z,22.93
2023-05-27T09:37:37.719Z,23.08
2023-05-27T09:40:16.404Z,23.11
2023-05-27T09:42:50.220Z,23.18
2023-05-27T09:45:22.571Z,23.32
2023-05-27T09:47:55.297Z,23.36
2023-05-27T09:50:27.911Z,23.39
2023-05-27T09:53:11.068Z,23.56
2023-05-27T09:55:44.664Z,23.69
2023-05-27T09:58:17.402Z,23.78
2023-05-27T10:00:51.640Z,23.85
2023-05-27T10:03:29.823Z,23.89
2023-05-27T10:06:03.925Z,23.98
2023-05-27T10:08:36.431Z,24.07
2023-05-27T10:11:08.496Z,24.23
2023-05-27T10:13:41.471Z,24.33
2023-05-27T10:16:24.167Z,24.21
2023-05-27T10:18:58.643Z,24.16
2023-05-27T10:21:34.352Z,24.16
2023-05-27T10:24:14.867Z,24.16
2023-05-27T10:26:49.456Z,24.06
2023-05-27T10:29:21.468Z,23.87
2023-05-27T10:31:54.314Z,23.67
2023-05-27T10:34:36.882Z,23.41
2023-05-27T10:37:09.310Z,23.17
2023-05-27T10:39:41.531Z,23.06
2023-05-27T10:42:24.210Z,23.02
2023-05-27T10:45:14.668Z,22.93
2023-05-27T10:47:47.893Z,22.91
2023-05-27T10:50:20.235Z,22.85
2023-05-27T10:52:53.523Z,22.77
2023-05-27T10:55:26.980Z,22.73
2023-05-27T10:57:59.707Z,22.74
2023-05-27T11:00:33.003Z,22.88
2023-05-27T11:03:05.087Z,23.13
2023-05-27T11:05:37.112Z,23.32
2023-05-27T11:08:14.211Z,23.40
2023-05-27T11:10:46.375Z,23.70
2023-05-27T11:13:18.343Z,23.98
2023-05-27T11:15:50.352Z,24.21
2023-05-27T11:18:22.426Z,24.31
2023-05-27T11:20:58.480Z,24.32
2023-05-27T11:23:50.523Z,24.35
2023-05-27T11:26:24.665Z,24.56
2023-05-27T11:28:59.934Z,24.69
2023-05-27T11:31:32.664Z,24.92
2023-05-27T11:34:04.984Z,24.94
2023-05-27T11:36:37.450Z,24.89
2023-05-27T11:39:19.797Z,24.91
2023-05-27T11:41:55.154Z,24.97
2023-05-27T11:44:28.597Z,25.14
2023-05-27T11:47:01.762Z,25.19
2023-05-27T11:49:36.152Z,25.14
2023-05-27T11:52:08.095Z,25.16
2023-05-27T11:54:43.510Z,25.14
2023-05-27T11:57:18.601Z,25.22
2023-05-27T11:59:50.762Z,25.31
2023-05-27T12:02:24.522Z,25.35
2023-05-27T12:04:56.733Z,25.33
2023-05-27T12:07:28.700Z,25.31
2023-05-27T12:10:00.924Z,25.41
2023-05-27T12:12:35.239Z,25.54
2023-05-27T12:15:08.314Z,25.26
2023-05-27T12:17:40.426Z,25.61
2023-05-27T12:20:12.760Z,25.66
2023-05-27T12:22:44.827Z,25.73
2023-05-27T12:25:16.822Z,25.83
2023-05-27T12:27:48.879Z,25.65
2023-05-27T12:30:21.490Z,25.77
2023-05-27T12:32:53.563Z,25.65
2023-05-27T12:35:25.591Z,25.70
2023-05-27T12:37:58.739Z,25.73
2023-05-27T12:40:30.832Z,25.82
2023-05-27T12:43:05.170Z,25.90
2023-05-27T12:45:37.377Z,25.91
2023-05-27T12:48:09.411Z,25.98
2023-05-27T12:50:41.872Z,26.08
2023-05-27T12:53:14.162Z,26.09
2023-05-27T12:55:46.222Z,26.15
2023-05-27T12:58:18.532Z,26.20
2023-05-27T13:00:50.582Z,26.16
2023-05-27T13:03:22.815Z,26.21
2023-05-27T13:05:54.828Z,26.20
2023-05-27T13:08:26.864Z,26.15
2023-05-27T13:10:58.896Z,26.13
2023-05-27T13:13:31.048Z,26.10
2023-05-27T13:16:03.520Z,26.06
2023-05-27T13:18:35.683Z,26.03
2023-05-27T13:21:07.702Z,26.11
2023-05-27T13:23:39.684Z,26.14
2023-05-27T13:26:12.099Z,26.17
2023-05-27T13:28:44.075Z,26.34
2023-05-27T13:31:16.474Z,26.41
2023-05-27T13:33:48.675Z,26.45
2023-05-27T13:36:20.678Z,26.43
2023-05-27T13:38:52.651Z,26.50
2023-05-27T13:41:24.853Z,26.53
2023-05-27T13:43:56.840Z,26.53
2023-05-27T13:46:28.906Z,26.53
2023-05-27T13:49:01.355Z,26.46
2023-05-27T13:51:33.938Z,26.31
2023-05-27T13:54:05.991Z,26.30
2023-05-27T13:56:38.540Z,26.30
2023-05-27T13:59:11.160Z,26.30
2023-05-27T14:01:43.336Z,26.36
2023-05-27T14:04:15.440Z,26.43
2023-05-27T14:06:47.506Z,26.55
2023-05-27T14:09:19.509Z,26.69
2023-05-27T14:11:51.542Z,26.75
2023-05-27T14:14:23.555Z,26.64
2023-05-27T14:16:55.931Z,26.67
2023-05-27T14:19:28.085Z,26.72
2023-05-27T14:21:59.997Z,26.76
2023-05-27T14:24:32.106Z,26.83
2023-05-27T14:27:04.396Z,26.79
2023-05-27T14:29:37.068Z,26.75
2023-05-27T14:32:09.181Z,26.74
2023-05-27T14:34:41.244Z,26.72
2023-05-27T14:37:13.366Z,26.75
2023-05-27T14:39:45.356Z,26.75
2023-05-27T14:42:17.322Z,26.76
2023-05-27T14:44:49.347Z,26.80
2023-05-27T14:47:23.015Z,26.84
2023-05-27T14:49:54.971Z,26.83
2023-05-27T14:52:26.936Z,26.76
2023-05-27T14:54:59.749Z,26.79
2023-05-27T14:57:35.188Z,26.76
2023-05-27T15:00:11.128Z,26.79
2023-05-27T15:02:43.256Z,26.97
2023-05-27T15:05:15.605Z,27.14
2023-05-27T15:07:47.669Z,27.28
2023-05-27T15:10:19.919Z,27.27
2023-05-27T15:12:52.028Z,27.26
2023-05-27T15:15:24.167Z,27.36
2023-05-27T15:17:56.805Z,27.31
2023-05-27T15:20:29.074Z,27.42
2023-05-27T15:23:01.241Z,27.38
2023-05-27T15:25:33.284Z,27.37
2023-05-27T15:28:05.277Z,27.36
2023-05-27T15:30:37.252Z,27.38
2023-05-27T15:33:09.372Z,27.51
2023-05-27T15:35:41.341Z,27.50
2023-05-27T15:38:14.582Z,27.48
2023-05-27T15:40:47.375Z,27.44
2023-05-27T15:43:19.402Z,27.41
2023-05-27T15:46:03.678Z,27.39
2023-05-27T15:48:36.677Z,27.39
2023-05-27T15:51:09.097Z,27.37
2023-05-27T15:53:41.091Z,27.43
2023-05-27T15:56:13.376Z,27.47
2023-05-27T15:58:45.410Z,27.51
2023-05-27T16:01:17.470Z,27.48
2023-05-27T16:03:49.498Z,27.41
2023-05-27T16:06:21.518Z,27.36
2023-05-27T16:08:54.674Z,27.44
2023-05-27T16:11:27.593Z,27.57
2023-05-27T16:13:59.507Z,27.58
2023-05-27T16:16:31.542Z,27.55
2023-05-27T16:19:03.577Z,27.59
2023-05-27T16:21:36.120Z,27.63
2023-05-27T16:24:08.407Z,27.48
2023-05-27T16:26:40.550Z,27.52
2023-05-27T16:29:12.500Z,27.53
2023-05-27T16:31:44.590Z,27.55
2023-05-27T16:34:16.627Z,27.46
2023-05-27T16:36:48.629Z,27.58
2023-05-27T16:39:20.595Z,27.60
2023-05-27T16:41:52.841Z,27.55
2023-05-27T16:44:24.842Z,27.56
2023-05-27T16:46:56.936Z,27.36
2023-05-27T16:49:28.868Z,27.49
2023-05-27T16:52:01.106Z,27.50
2023-05-27T16:54:33.148Z,27.43
2023-05-27T16:57:05.728Z,27.36
2023-05-27T16:59:37.680Z,27.25
2023-05-27T17:02:10.495Z,27.19
2023-05-27T17:04:42.485Z,27.16
2023-05-27T17:07:14.559Z,27.22
2023-05-27T17:09:47.688Z,27.20
2023-05-27T17:12:19.755Z,27.18
2023-05-27T17:14:52.320Z,27.17
2023-05-27T17:17:24.408Z,27.12
2023-05-27T17:19:56.666Z,27.03
2023-05-27T17:22:28.699Z,27.09
2023-05-27T17:25:00.748Z,27.08
2023-05-27T17:27:32.710Z,27.09
2023-05-27T17:30:05.517Z,27.05
2023-05-27T17:32:37.546Z,27.01
2023-05-27T17:35:10.039Z,26.95
2023-05-27T17:37:42.411Z,26.89
2023-05-27T17:40:14.496Z,26.90
2023-05-27T17:42:47.799Z,26.90
2023-05-27T17:45:19.793Z,26.82
2023-05-27T17:47:52.218Z,26.70
2023-05-27T17:50:24.589Z,26.59
2023-05-27T17:52:56.637Z,26.44
2023-05-27T17:55:28.673Z,26.34
2023-05-27T17:58:00.934Z,26.25
2023-05-27T18:00:33.451Z,26.25
2023-05-27T18:03:09.135Z,26.26
2023-05-27T18:05:41.395Z,26.19
2023-05-27T18:08:13.419Z,26.08
2023-05-27T18:10:46.723Z,26.02
2023-05-27T18:13:18.696Z,25.92
2023-05-27T18:15:51.568Z,25.89
2023-05-27T18:18:23.711Z,25.88
2023-05-27T18:20:57.022Z,25.83
2023-05-27T18:23:29.073Z,25.81
2023-05-27T18:26:01.276Z,25.77
2023-05-27T18:28:33.283Z,25.71
2023-05-27T18:31:05.389Z,25.63
2023-05-27T18:33:37.476Z,25.60
2023-05-27T18:36:09.604Z,25.56
2023-05-27T18:38:41.596Z,25.52
2023-05-27T18:41:13.636Z,25.45
2023-05-27T18:43:45.602Z,25.34
2023-05-27T18:46:17.609Z,25.26
2023-05-27T18:48:49.668Z,25.18
2023-05-27T18:51:22.813Z,25.09
2023-05-27T18:53:54.877Z,25.00
2023-05-27T18:56:27.785Z,24.93
2023-05-27T18:59:00.483Z,24.88
2023-05-27T19:01:32.652Z,24.77
2023-05-27T19:04:04.705Z,24.71
2023-05-27T19:06:37.485Z,24.65
2023-05-27T19:09:09.487Z,24.57
2023-05-27T19:11:41.694Z,24.47
2023-05-27T19:14:14.204Z,24.40
2023-05-27T19:16:46.204Z,24.31
2023-05-27T19:19:18.266Z,24.24
2023-05-27T19:21:50.326Z,24.16
2023-05-27T19:24:22.408Z,24.05
2023-05-27T19:26:54.449Z,24.00
2023-05-27T19:29:26.403Z,23.92
2023-05-27T19:31:58.592Z,23.88
2023-05-27T19:34:30.783Z,23.81
2023-05-27T19:37:02.751Z,23.57
2023-05-27T19:39:34.893Z,23.65
2023-05-27T19:42:07.138Z,23.60
2023-05-27T19:44:39.082Z,23.52
2023-05-27T19:47:11.321Z,23.42
2023-05-27T19:49:43.391Z,23.36
2023-05-27T19:52:15.656Z,23.30
2023-05-27T19:54:47.686Z,23.22
2023-05-27T19:57:19.696Z,23.13
2023-05-27T19:59:51.786Z,23.05
2023-05-27T20:02:23.903Z,22.98
2023-05-27T20:04:55.979Z,22.91
2023-05-27T20:07:27.982Z,22.69
2023-05-27T20:10:00.162Z,22.76
2023-05-27T20:12:43.976Z,22.72
2023-05-27T20:15:17.082Z,22.65
2023-05-27T20:17:49.203Z,22.60
2023-05-27T20:20:27.461Z,22.53
2023-05-27T20:22:59.777Z,22.44
2023-05-27T20:25:31.835Z,22.43
2023-05-27T20:28:03.999Z,22.35
2023-05-27T20:30:36.145Z,22.30
2023-05-27T20:33:08.312Z,22.25
2023-05-27T20:35:40.423Z,22.20
2023-05-27T20:38:13.506Z,22.18
2023-05-27T20:40:45.817Z,22.10
2023-05-27T20:43:17.814Z,22.04
2023-05-27T20:45:49.783Z,22.01
2023-05-27T20:48:21.744Z,21.95
2023-05-27T20:50:53.913Z,21.91
2023-05-27T20:53:26.144Z,21.85
2023-05-27T20:55:58.154Z,21.80
2023-05-27T20:58:30.337Z,21.58
2023-05-27T21:01:02.428Z,21.70
2023-05-27T21:03:35.124Z,21.62
2023-05-27T21:06:07.228Z,21.55
2023-05-27T21:08:39.523Z,21.54
2023-05-27T21:11:11.552Z,21.47
2023-05-27T21:13:44.087Z,21.42
2023-05-27T21:16:16.341Z,21.39
2023-05-27T21:18:48.498Z,21.30
2023-05-27T21:21:20.648Z,21.27
2023-05-27T21:23:52.651Z,21.26
2023-05-27T21:26:24.752Z,21.23
2023-05-27T21:28:57.126Z,21.23
2023-05-27T21:31:29.144Z,21.17
2023-05-27T21:34:01.798Z,21.12
2023-05-27T21:36:34.563Z,21.07
2023-05-27T21:39:06.757Z,20.91
2023-05-27T21:41:38.979Z,21.00
2023-05-27T21:44:11.050Z,21.11
2023-05-27T21:46:43.056Z,20.97
2023-05-27T21:49:15.065Z,20.90
2023-05-27T21:51:47.104Z,20.81
2023-05-27T21:54:19.083Z,20.77
2023-05-27T21:56:51.205Z,20.72
2023-05-27T21:59:23.310Z,20.69
2023-05-27T22:01:55.531Z,20.67
2023-05-27T22:04:27.579Z,20.60
2023-05-27T22:06:59.681Z,20.61
2023-05-27T22:09:31.810Z,20.56
2023-05-27T22:12:04.034Z,20.52
2023-05-27T22:14:36.387Z,20.50
2023-05-27T22:17:08.530Z,20.49
2023-05-27T22:19:40.837Z,20.40
2023-05-27T22:22:12.841Z,20.39
2023-05-27T22:24:45.012Z,20.33
2023-05-27T22:27:17.489Z,20.27
2023-05-27T22:29:50.733Z,20.23
2023-05-27T22:32:22.757Z,20.20
2023-05-27T22:34:54.753Z,20.15
2023-05-27T22:37:26.737Z,20.14
2023-05-27T22:39:58.874Z,20.11
2023-05-27T22:42:30.948Z,20.08
2023-05-27T22:45:03.595Z,20.05
2023-05-27T22:47:39.592Z,20.05
2023-05-27T22:50:11.838Z,19.99
2023-05-27T22:52:43.825Z,19.91
2023-05-27T22:55:16.070Z,19.90
2023-05-27T22:57:48.036Z,19.81
2023-05-27T23:00:20.078Z,19.83
2023-05-27T23:02:52.229Z,19.70
2023-05-27T23:05:24.309Z,19.79
2023-05-27T23:07:56.309Z,19.77
2023-05-27T23:10:28.331Z,19.77
2023-05-27T23:13:00.411Z,19.71
2023-05-27T23:15:33.592Z,19.67
2023-05-27T23:18:05.768Z,19.57
2023-05-27T23:20:37.922Z,19.57
2023-05-27T23:23:09.937Z,19.50
2023-05-27T23:25:42.182Z,19.51
2023-05-27T23:28:14.157Z,19.48
2023-05-27T23:30:46.092Z,19.37
2023-05-27T23:33:18.186Z,19.35
2023-05-27T23:35:50.212Z,19.28
2023-05-27T23:38:22.708Z,19.32
2023-05-27T23:40:54.702Z,19.31
2023-05-27T23:43:28.446Z,19.27
2023-05-27T23:46:00.597Z,19.25
2023-05-27T23:48:34.534Z,19.22
2023-05-27T23:51:08.027Z,19.15
2023-05-27T23:53:40.006Z,19.13
2023-05-27T23:56:11.960Z,19.08
2023-05-27T23:58:43.918Z,19.04
